Dinant, Belgium
Current Conditions -  °F | °C
As of 2:55 AM on Sunday 23 Nov 2014 (Local Time) from EBFS Reporting Station
Broken Clouds Broken Clouds  
Wind Chill: 10°   Ceiling: 13000
Heat Index: 10°   Visibility: 6mi
Dew Point:   Wind: 5mph
Humidity: 94%   Direction: 140°SE
Pressure: 30.06"   Gusts: NA
Location:  50.26°N, 4.91°E
Report Text: EBFS 230155Z 14004KT 9999 BKN130 10/09 Q1018 BLU
Loading
Personal Weather Stations






























Interactive Weather Map New forecast layout! Learn more

10-Day Weather Forecast

Advertisements
Track Severe Weather on mobile